Current Weather

Brooks Fld

Marshall, Michigan (KRMY)

Report from: Thursday, April 25, 2024 12:35 AM EDT
Current time: Thursday, April 25, 2024 12:46 AM EDT

Nearby weather – Weather history – Daily summaries
Weather forecast

Temperature-0.1°C (31.8°F)
Dew point-2.5°C (27.5°F)
Winds Calm
Visibility10 mi. (16.1 km)
Clouds Sky clear
Altimeter30.30 in.Hg (1026 mB)
Relative humidity84 %
Density altitude-2,204 ft. (-672 m)
Remarks Fully automated report
Automated weather observing station with precipitation discriminator
Flight conditions Visual Meteorological Conditions
Raw dataKRMY 250435Z AUTO 00000KT 10SM CLR 00/M02 A3030 RMK AO2 T10011025
An error has occurred. This application may no longer respond until reloaded. Reload 🗙